Time;durP1;ratioP1;P1;durP2;ratioP2;P2;SDS_P1;SDS_P2;PMS_P1;PMS_P2;Temp;Humidity;BMP_temperature;BMP_pressure;BME280_temperature;BME280_humidity;BME280_pressure;Samples;Min_cycle;Max_cycle;Signal;HPM_P1;HPM_P2
2020/12/14 00:02:07;;;;;;;13.77;5.95;;;;;;;6.58;91.56;100301.53;4968029;28;20041;-70
2020/12/14 00:04:33;;;;;;;15.63;6.03;;;;;;;6.60;92.28;100302.31;4965104;28;20519;-70
2020/12/14 00:06:59;;;;;;;19.70;6.38;;;;;;;6.62;91.50;100300.41;4968372;28;20042;-70
2020/12/14 00:09:24;;;;;;;16.27;5.85;;;;;;;6.59;91.76;100300.59;4965934;28;20042;-70
2020/12/14 00:11:50;;;;;;;14.45;6.00;;;;;;;6.62;91.34;100297.75;4967403;28;20049;-70
2020/12/14 00:14:16;;;;;;;17.75;6.63;;;;;;;6.67;91.33;100304.56;4966535;28;20030;-70
2020/12/14 00:16:41;;;;;;;13.90;6.10;;;;;;;6.68;91.01;100297.41;4967991;28;20153;-70
2020/12/14 00:19:07;;;;;;;14.75;5.72;;;;;;;6.60;90.90;100300.53;4963895;28;21157;-70
2020/12/14 00:21:33;;;;;;;11.38;5.75;;;;;;;6.60;91.19;100297.84;4967558;28;20497;-70
2020/12/14 00:23:58;;;;;;;16.67;5.85;;;;;;;6.65;90.68;100298.47;4964406;28;20054;-70
2020/12/14 00:26:23;;;;;;;12.57;5.65;;;;;;;6.67;91.15;100295.69;4968338;28;20027;-70
2020/12/14 00:28:49;;;;;;;17.63;5.95;;;;;;;6.60;90.85;100300.53;4948315;28;20129;-70
2020/12/14 00:31:16;;;;;;;17.73;5.65;;;;;;;6.65;90.52;100302.94;4965981;28;20034;-70
2020/12/14 00:33:43;;;;;;;13.43;5.45;;;;;;;6.63;90.65;100299.47;4966831;28;20057;-70
2020/12/14 00:36:10;;;;;;;14.15;5.57;;;;;;;6.54;91.46;100297.31;4967073;28;20035;-70
2020/12/14 00:38:36;;;;;;;14.40;5.35;;;;;;;6.66;90.31;100302.84;4965270;28;20512;-70
2020/12/14 00:41:02;;;;;;;12.15;5.20;;;;;;;6.66;90.54;100296.66;4966602;28;20405;-70
2020/12/14 00:43:27;;;;;;;15.05;5.78;;;;;;;6.69;89.94;100296.47;4965809;28;20023;-70
2020/12/14 00:45:52;;;;;;;14.13;5.50;;;;;;;6.66;90.77;100286.00;4966654;28;20504;-70
2020/12/14 00:48:18;;;;;;;18.75;5.45;;;;;;;6.67;90.01;100277.88;4967411;28;20035;-70
2020/12/14 00:50:43;;;;;;;19.95;5.28;;;;;;;6.60;90.60;100281.00;4967092;28;20035;-70
2020/12/14 00:53:08;;;;;;;24.85;6.32;;;;;;;6.68;90.20;100282.28;4964790;28;20031;-70
2020/12/14 00:55:34;;;;;;;15.85;5.25;;;;;;;6.61;90.71;100272.88;4970118;28;20517;-70
2020/12/14 00:57:59;;;;;;;8.52;4.57;;;;;;;6.64;90.48;100267.41;4968348;28;20039;-70
2020/12/14 01:00:25;;;;;;;14.93;6.03;;;;;;;6.66;91.03;100272.66;4968856;28;20049;-70
2020/12/14 01:02:50;;;;;;;12.65;4.53;;;;;;;6.64;91.18;100278.06;4971497;28;20058;-70
2020/12/14 01:05:15;;;;;;;13.68;5.32;;;;;;;6.65;91.53;100284.25;4969998;28;20529;-70
2020/12/14 01:07:41;;;;;;;13.15;4.95;;;;;;;6.69;91.50;100285.81;4969251;28;20379;-70
2020/12/14 01:10:06;;;;;;;12.68;5.15;;;;;;;6.71;91.29;100273.25;4976998;28;20034;-70
2020/12/14 01:12:32;;;;;;;15.68;4.63;;;;;;;6.66;91.71;100270.84;4971219;28;20481;-70
2020/12/14 01:14:57;;;;;;;18.92;5.05;;;;;;;6.69;92.03;100276.00;4970944;28;20051;-70
2020/12/14 01:17:22;;;;;;;15.55;4.80;;;;;;;6.71;91.76;100273.25;4975881;28;20073;-70
2020/12/14 01:19:48;;;;;;;10.13;4.25;;;;;;;6.73;91.47;100272.22;4970783;28;20061;-70
2020/12/14 01:22:13;;;;;;;21.15;5.32;;;;;;;6.72;91.77;100265.19;4968033;28;20126;-70
2020/12/14 01:24:38;;;;;;;11.70;4.80;;;;;;;6.63;92.02;100260.34;4971226;28;20046;-70
2020/12/14 01:27:04;;;;;;;14.10;5.00;;;;;;;6.72;91.45;100256.31;4970042;28;20074;-70
2020/12/14 01:29:29;;;;;;;13.80;5.70;;;;;;;6.66;91.66;100246.84;4969660;28;20482;-70
2020/12/14 01:31:55;;;;;;;12.10;4.10;;;;;;;6.67;91.52;100253.00;4974992;28;20042;-70
2020/12/14 01:34:20;;;;;;;12.80;4.38;;;;;;;6.73;90.94;100250.00;4969963;28;20042;-70
2020/12/14 01:36:48;;;;;;;16.92;4.72;;;;;;;6.70;90.86;100253.72;4970510;28;20299;-70
2020/12/14 01:39:17;;;;;;;15.75;5.15;;;;;;;6.70;91.12;100255.53;4971141;28;20027;-70
2020/12/14 01:41:43;;;;;;;10.60;3.88;;;;;;;6.75;90.57;100254.31;4971746;28;20069;-70
2020/12/14 01:44:08;;;;;;;9.48;4.38;;;;;;;6.69;91.01;100260.00;4970864;28;20035;-70
2020/12/14 01:46:34;;;;;;;13.40;4.20;;;;;;;6.75;90.55;100258.78;4970864;28;20039;-70
2020/12/14 01:49:00;;;;;;;9.77;4.30;;;;;;;6.79;90.35;100261.19;4968485;28;20066;-70
2020/12/14 01:51:29;;;;;;;10.20;4.43;;;;;;;6.71;91.06;100265.25;4969986;28;20042;-70
2020/12/14 01:53:58;;;;;;;12.75;4.07;;;;;;;6.71;91.11;100274.13;4952991;28;20031;-70
2020/12/14 01:56:24;;;;;;;17.25;3.95;;;;;;;6.73;91.13;100266.88;4970217;28;20105;-70
2020/12/14 01:58:52;;;;;;;13.38;3.53;;;;;;;6.65;91.58;100268.25;4970337;28;20129;-70
2020/12/14 02:01:18;;;;;;;9.07;3.35;;;;;;;6.69;91.51;100269.81;4968685;28;20113;-70
2020/12/14 02:03:43;;;;;;;15.77;3.72;;;;;;;6.61;92.40;100258.69;4969358;28;20493;-70
2020/12/14 02:06:09;;;;;;;15.02;4.57;;;;;;;6.71;91.46;100267.91;4970378;28;20661;-70
2020/12/14 02:08:34;;;;;;;16.95;3.83;;;;;;;6.72;91.41;100248.31;4968794;28;20117;-70
2020/12/14 02:11:00;;;;;;;13.68;4.03;;;;;;;6.64;91.85;100255.88;4970122;28;20068;-70
2020/12/14 02:13:30;;;;;;;9.20;3.55;;;;;;;6.74;91.41;100249.94;4969391;28;20094;-71
2020/12/14 02:15:55;;;;;;;7.15;4.07;;;;;;;6.61;92.13;100240.03;4968316;28;20050;-70
2020/12/14 02:18:22;;;;;;;15.57;3.97;;;;;;;6.67;92.00;100234.34;4970480;28;20043;-70
2020/12/14 02:20:48;;;;;;;12.65;3.90;;;;;;;6.60;92.09;100225.88;4971267;28;20042;-71
2020/12/14 02:23:14;;;;;;;17.52;4.25;;;;;;;6.53;92.63;100231.63;4969946;28;20497;-70
2020/12/14 02:25:39;;;;;;;17.65;3.65;;;;;;;6.62;92.09;100231.09;4969978;28;20121;-70
2020/12/14 02:28:04;;;;;;;11.45;3.60;;;;;;;6.50;92.33;100232.63;4969655;28;20050;-70
2020/12/14 02:30:30;;;;;;;12.75;3.75;;;;;;;6.54;92.82;100234.19;4966826;28;20039;-70
2020/12/14 02:32:55;;;;;;;13.90;4.88;;;;;;;6.55;92.46;100243.03;4970655;28;20050;-70
2020/12/14 02:35:20;;;;;;;8.38;3.83;;;;;;;6.57;92.54;100241.16;4970125;28;20045;-70
2020/12/14 02:37:46;;;;;;;11.63;3.63;;;;;;;6.49;93.26;100237.09;4968640;28;20453;-70
2020/12/14 02:40:11;;;;;;;7.22;3.67;;;;;;;6.55;92.93;100229.69;4968393;28;20035;-70
2020/12/14 02:42:37;;;;;;;10.57;3.83;;;;;;;6.52;93.22;100229.88;4969774;28;20097;-70
2020/12/14 02:45:02;;;;;;;9.77;3.40;;;;;;;6.50;93.18;100222.81;4968141;28;20666;-70
2020/12/14 02:47:28;;;;;;;10.65;4.07;;;;;;;6.57;92.93;100222.50;4969093;28;20027;-70
2020/12/14 02:49:53;;;;;;;9.00;3.42;;;;;;;6.51;93.22;100229.03;4969462;28;20026;-70
2020/12/14 02:52:19;;;;;;;10.45;3.60;;;;;;;6.49;92.78;100220.25;4966833;28;20054;-70
2020/12/14 02:54:45;;;;;;;14.57;3.85;;;;;;;6.44;93.17;100227.63;4969507;28;20102;-70
2020/12/14 02:57:11;;;;;;;15.65;4.65;;;;;;;6.43;93.45;100228.56;4967459;28;20129;-70
2020/12/14 02:59:36;;;;;;;14.00;3.88;;;;;;;6.48;93.03;100226.53;4971874;28;20494;-70
2020/12/14 03:02:02;;;;;;;13.95;3.95;;;;;;;6.53;92.76;100231.63;4969045;28;20058;-70
2020/12/14 03:04:28;;;;;;;8.23;3.92;;;;;;;6.50;92.83;100224.63;4970208;28;20470;-70
2020/12/14 03:06:53;;;;;;;11.32;3.58;;;;;;;6.61;92.97;100213.34;4966690;28;20035;-70
2020/12/14 03:09:21;;;;;;;12.10;4.18;;;;;;;6.46;93.13;100210.63;4969218;28;20034;-70
2020/12/14 03:11:47;;;;;;;12.23;4.85;;;;;;;6.55;93.10;100203.91;4968220;28;20035;-70
2020/12/14 03:14:13;;;;;;;13.65;3.78;;;;;;;6.41;93.74;100217.16;4968781;28;20038;-70
2020/12/14 03:16:48;;;;;;;11.50;3.63;;;;;;;6.47;93.54;100207.03;4968701;28;20089;-70
2020/12/14 03:19:14;;;;;;;12.52;3.47;;;;;;;6.42;94.32;100206.38;4965215;28;20431;-70
2020/12/14 03:21:40;;;;;;;12.25;3.58;;;;;;;6.56;94.02;100202.97;4967708;28;20031;-70
2020/12/14 03:24:06;;;;;;;8.02;3.28;;;;;;;6.53;93.98;100199.63;4968175;28;20031;-71
2020/12/14 03:26:31;;;;;;;9.55;3.63;;;;;;;6.53;94.18;100194.28;4967763;28;20122;-71
2020/12/14 03:28:57;;;;;;;10.90;3.60;;;;;;;6.50;94.81;100206.84;4967393;28;20047;-70
2020/12/14 03:31:22;;;;;;;15.38;3.75;;;;;;;6.53;94.72;100199.63;4967777;28;20039;-70
2020/12/14 03:33:51;;;;;;;9.55;3.60;;;;;;;6.41;95.39;100194.03;4965954;28;20034;-70
2020/12/14 03:36:20;;;;;;;17.08;4.75;;;;;;;6.53;95.64;100196.94;4967609;28;20110;-71
2020/12/14 03:38:45;;;;;;;10.55;4.18;;;;;;;6.60;95.13;100195.66;4966582;28;20065;-70
2020/12/14 03:41:11;;;;;;;12.77;4.28;;;;;;;6.58;94.92;100202.88;4968472;28;20568;-70
2020/12/14 03:43:36;;;;;;;12.02;4.22;;;;;;;6.52;95.08;100204.09;4968925;28;20454;-70
2020/12/14 03:46:02;;;;;;;12.35;3.40;;;;;;;6.57;95.53;100204.69;4970819;28;20027;-70
2020/12/14 03:48:27;;;;;;;9.80;3.35;;;;;;;6.58;95.15;100210.88;4968249;28;20508;-70
2020/12/14 03:50:52;;;;;;;7.07;3.20;;;;;;;6.55;95.22;100219.03;4967295;28;20129;-70
2020/12/14 03:53:18;;;;;;;5.60;2.65;;;;;;;6.56;95.68;100220.75;4971100;28;20140;-70
2020/12/14 03:55:44;;;;;;;13.65;3.45;;;;;;;6.56;95.67;100215.44;4967172;28;20047;-70
2020/12/14 03:58:10;;;;;;;11.52;3.38;;;;;;;6.62;96.13;100210.63;4967515;28;20031;-70
2020/12/14 04:00:35;;;;;;;9.70;3.97;;;;;;;6.58;96.48;100205.56;4966714;28;20042;-70
2020/12/14 04:03:05;;;;;;;14.82;3.58;;;;;;;6.63;96.26;100211.47;4971599;28;20038;-70
2020/12/14 04:05:30;;;;;;;16.67;3.38;;;;;;;6.62;96.54;100215.09;4967779;28;20035;-70
2020/12/14 04:07:56;;;;;;;8.93;3.17;;;;;;;6.69;96.31;100216.47;4969091;28;20477;-70
2020/12/14 04:10:21;;;;;;;8.15;3.13;;;;;;;6.64;96.87;100206.06;4968855;28;20053;-70
2020/12/14 04:12:47;;;;;;;8.52;3.38;;;;;;;6.66;97.43;100211.31;4965933;28;20082;-70
2020/12/14 04:15:12;;;;;;;9.32;3.17;;;;;;;6.69;97.38;100216.47;4969004;28;20088;-70
2020/12/14 04:17:37;;;;;;;8.38;3.10;;;;;;;6.65;97.96;100204.25;4967917;28;20057;-70
2020/12/14 04:20:03;;;;;;;10.65;3.63;;;;;;;6.73;97.81;100207.34;4966823;28;20092;-70
2020/12/14 04:22:28;;;;;;;7.68;2.50;;;;;;;6.71;98.20;100202.13;4965943;28;20034;-70
2020/12/14 04:24:54;;;;;;;10.55;3.10;;;;;;;6.78;98.44;100200.81;4967662;28;20030;-70
2020/12/14 04:27:19;;;;;;;9.95;3.10;;;;;;;6.80;98.29;100195.38;4967564;28;20027;-70
2020/12/14 04:29:44;;;;;;;9.48;3.05;;;;;;;6.92;98.04;100205.34;4966983;28;20043;-70
2020/12/14 04:32:10;;;;;;;10.30;3.35;;;;;;;6.83;98.55;100197.88;4967038;28;20046;-70
2020/12/14 04:34:35;;;;;;;6.22;3.03;;;;;;;6.90;98.74;100193.91;4968625;28;20035;-70
2020/12/14 04:37:01;;;;;;;8.60;3.45;;;;;;;6.96;98.75;100190.91;4967459;28;20046;-70
2020/12/14 04:39:27;;;;;;;12.63;3.30;;;;;;;6.83;99.43;100195.22;4971792;28;20490;-71
2020/12/14 04:41:57;;;;;;;9.48;3.10;;;;;;;6.92;99.69;100192.00;4967946;28;20038;-70
2020/12/14 04:44:22;;;;;;;8.43;2.83;;;;;;;6.96;99.16;100188.22;4968014;28;20374;-70
2020/12/14 04:46:49;;;;;;;9.13;3.67;;;;;;;6.93;99.40;100188.38;4966526;28;20042;-70
2020/12/14 04:49:15;;;;;;;11.63;3.15;;;;;;;6.98;99.08;100188.97;4967049;28;20042;-70
2020/12/14 04:51:41;;;;;;;9.73;2.88;;;;;;;7.07;98.62;100188.47;4966350;28;20035;-70
2020/12/14 04:54:06;;;;;;;7.85;2.60;;;;;;;7.00;99.10;100184.44;4967231;28;20034;-70
2020/12/14 04:56:37;;;;;;;7.20;2.78;;;;;;;7.07;98.77;100184.94;4969235;28;20481;-70
2020/12/14 04:59:03;;;;;;;7.97;2.40;;;;;;;7.07;98.61;100177.78;4967721;28;20073;-70
2020/12/14 05:01:29;;;;;;;6.43;2.20;;;;;;;7.12;98.49;100182.84;4965516;28;20490;-70
2020/12/14 05:03:54;;;;;;;9.00;2.70;;;;;;;7.12;98.60;100189.03;4967522;28;20045;-70
2020/12/14 05:06:20;;;;;;;7.70;3.13;;;;;;;7.11;98.54;100184.66;4966563;28;20036;-70
2020/12/14 05:08:45;;;;;;;3.92;1.90;;;;;;;7.07;98.55;100185.78;4965881;28;20488;-70
2020/12/14 05:11:11;;;;;;;5.60;1.98;;;;;;;7.06;98.58;100177.88;4967261;28;20090;-70
2020/12/14 05:13:36;;;;;;;7.82;2.20;;;;;;;7.11;98.61;100181.97;4966098;28;20161;-70
2020/12/14 05:16:03;;;;;;;9.02;2.53;;;;;;;7.12;98.24;100189.03;4965719;28;20035;-70
2020/12/14 05:18:29;;;;;;;6.38;2.50;;;;;;;7.10;98.54;100182.94;4962747;28;20035;-70
2020/12/14 05:21:05;;;;;;;8.13;3.10;;;;;;;7.12;98.36;100183.72;4967378;28;20046;-70
2020/12/14 05:23:31;;;;;;;9.85;2.63;;;;;;;7.10;98.50;100190.06;4967880;28;20041;-70
2020/12/14 05:26:08;;;;;;;11.05;2.70;;;;;;;7.14;98.14;100181.81;4968207;28;20146;-70
2020/12/14 05:28:34;;;;;;;6.80;2.72;;;;;;;7.14;98.20;100181.81;4962663;28;20107;-70
2020/12/14 05:30:59;;;;;;;6.82;2.50;;;;;;;7.10;98.01;100190.06;4965946;28;20508;-70
2020/12/14 05:33:28;;;;;;;20.50;5.60;;;;;;;7.00;98.58;100184.44;4966245;28;20066;-70
2020/12/14 05:35:53;;;;;;;9.45;3.25;;;;;;;7.13;97.86;100188.09;4966334;28;20042;-70
2020/12/14 05:38:30;;;;;;;8.43;3.13;;;;;;;7.04;98.06;100185.97;4967444;28;20244;-70
2020/12/14 05:41:02;;;;;;;5.80;2.67;;;;;;;7.01;97.96;100186.16;4966712;28;20034;-71
2020/12/14 05:43:30;;;;;;;8.65;2.80;;;;;;;7.00;97.57;100179.09;4969089;28;20164;-70
2020/12/14 05:45:56;;;;;;;9.35;2.83;;;;;;;6.98;97.64;100190.78;4969388;28;20038;-70
2020/12/14 05:48:30;;;;;;;15.60;3.53;;;;;;;6.89;98.08;100192.19;4971343;28;20382;-70
2020/12/14 05:51:00;;;;;;;6.55;2.70;;;;;;;6.87;97.90;100183.41;4969220;28;20030;-70
2020/12/14 05:53:50;;;;;;;9.73;2.92;;;;;;;6.88;97.77;100180.66;4975053;28;20152;-70
2020/12/14 05:56:17;;;;;;;11.23;2.95;;;;;;;6.89;97.52;100181.53;4970835;28;20088;-70
2020/12/14 05:58:43;;;;;;;8.07;3.00;;;;;;;6.83;97.80;100171.22;4969201;28;20038;-70
2020/12/14 06:01:08;;;;;;;17.35;3.20;;;;;;;6.86;97.66;100179.03;4970207;28;20042;-70
2020/12/14 06:03:35;;;;;;;11.80;3.03;;;;;;;6.88;97.45;100174.47;4971435;28;20042;-70
2020/12/14 06:06:13;;;;;;;8.80;3.17;;;;;;;6.86;97.70;100171.00;4970087;28;20497;-71
2020/12/14 06:08:44;;;;;;;13.00;3.85;;;;;;;6.87;98.00;100170.06;4970506;28;20023;-70
2020/12/14 06:11:11;;;;;;;9.68;3.40;;;;;;;6.90;98.00;100177.91;4986680;28;20039;-70
2020/12/14 06:13:58;;;;;;;9.32;3.38;;;;;;;6.83;98.14;100174.75;4969259;28;20026;-70
2020/12/14 06:16:30;;;;;;;6.18;3.00;;;;;;;6.85;98.66;100174.66;4967830;28;20113;-70
2020/12/14 06:18:56;;;;;;;6.80;3.13;;;;;;;6.82;98.31;100178.34;4970297;28;20039;-70
2020/12/14 06:21:28;;;;;;;15.98;3.78;;;;;;;6.84;98.44;100184.47;4969646;28;20047;-70
2020/12/14 06:23:57;;;;;;;15.73;3.78;;;;;;;6.87;98.36;100189.59;4970614;28;20068;-70
2020/12/14 06:26:23;;;;;;;7.97;3.53;;;;;;;6.85;98.49;100185.34;4970405;28;20038;-70
2020/12/14 06:28:50;;;;;;;7.60;3.60;;;;;;;6.90;98.69;100184.13;4964164;28;20026;-70
2020/12/14 06:31:34;;;;;;;24.30;8.02;;;;;;;6.96;98.76;100182.91;4970118;28;20045;-70
2020/12/14 06:34:03;;;;;;;32.47;12.07;;;;;;;6.98;98.26;100174.78;4969913;28;20030;-70
2020/12/14 06:36:37;;;;;;;27.17;11.90;;;;;;;6.93;98.68;100177.72;4969435;28;20042;-70
2020/12/14 06:39:03;;;;;;;12.30;4.13;;;;;;;7.01;98.99;100170.13;4969593;28;20042;-70
2020/12/14 06:41:30;;;;;;;12.18;5.72;;;;;;;6.98;99.01;100180.13;4969911;28;20061;-70
2020/12/14 06:44:13;;;;;;;17.25;5.82;;;;;;;7.05;98.70;100182.34;4968934;28;20043;-70
2020/12/14 06:46:39;;;;;;;9.75;3.50;;;;;;;7.02;99.08;100187.00;4968656;28;20060;-70
2020/12/14 06:49:09;;;;;;;11.00;3.78;;;;;;;7.05;99.17;100190.34;4968952;28;20375;-70
2020/12/14 06:52:06;;;;;;;8.30;3.33;;;;;;;7.17;99.78;100197.63;4973987;28;20084;-70
2020/12/14 06:54:42;;;;;;;8.30;3.70;;;;;;;7.04;100.00;100190.44;4968167;28;20126;-70
2020/12/14 06:57:10;;;;;;;9.85;3.40;;;;;;;7.04;100.00;100193.09;4968349;28;20109;-70
2020/12/14 06:59:36;;;;;;;5.00;3.08;;;;;;;6.97;100.00;100200.63;4968998;28;20034;-70
2020/12/14 07:02:03;;;;;;;10.13;3.30;;;;;;;6.90;100.00;100193.91;4967553;28;20038;-70
2020/12/14 07:04:29;;;;;;;10.88;3.67;;;;;;;6.92;100.00;100202.69;4973564;28;20042;-70
2020/12/14 07:06:55;;;;;;;10.05;4.45;;;;;;;6.87;100.00;100202.09;4969603;28;20510;-71
2020/12/14 07:09:28;;;;;;;10.13;3.85;;;;;;;6.84;100.00;100195.13;4967984;28;20505;-71
2020/12/14 07:11:55;;;;;;;9.85;4.13;;;;;;;6.77;100.00;100199.09;4966816;28;20076;-70
2020/12/14 07:14:30;;;;;;;12.18;4.00;;;;;;;6.78;100.00;100202.63;4968365;28;20035;-71
2020/12/14 07:16:58;;;;;;;9.05;4.20;;;;;;;6.81;100.00;100210.44;4967623;28;20054;-71
2020/12/14 07:19:35;;;;;;;12.02;4.75;;;;;;;6.74;100.00;100203.72;4969051;28;20061;-71
2020/12/14 07:22:01;;;;;;;11.77;4.85;;;;;;;6.74;100.00;100215.25;4967722;28;20081;-71
2020/12/14 07:24:33;;;;;;;12.00;4.88;;;;;;;6.73;100.00;100226.00;4982401;28;20448;-71
2020/12/14 07:26:59;;;;;;;9.43;4.83;;;;;;;6.77;100.00;100225.78;4966833;28;20121;-72
2020/12/14 07:29:24;;;;;;;11.68;5.40;;;;;;;6.72;100.00;100229.66;4967010;28;20094;-71
2020/12/14 07:31:50;;;;;;;17.17;5.00;;;;;;;6.78;100.00;100222.16;4963042;28;20453;-72
2020/12/14 07:34:16;;;;;;;12.20;5.50;;;;;;;6.74;100.00;100233.06;4970272;28;20050;-72
2020/12/14 07:36:41;;;;;;;14.70;5.10;;;;;;;6.74;100.00;100225.06;4969528;28;20118;-72
2020/12/14 07:39:07;;;;;;;14.75;5.90;;;;;;;6.76;100.00;100231.19;4970523;28;20382;-72
2020/12/14 07:41:33;;;;;;;10.15;5.20;;;;;;;6.77;100.00;100235.56;4969460;28;20895;-72
2020/12/14 07:44:00;;;;;;;11.43;5.35;;;;;;;6.71;100.00;100231.44;4967784;28;20125;-72
2020/12/14 07:46:30;;;;;;;13.70;5.55;;;;;;;6.79;100.00;100239.84;4967968;28;20034;-71
2020/12/14 07:48:58;;;;;;;14.23;5.53;;;;;;;6.80;100.00;100240.72;4970109;28;20050;-72
2020/12/14 07:51:25;;;;;;;13.75;5.82;;;;;;;6.72;100.00;100237.66;4969252;28;20811;-74
2020/12/14 07:53:52;;;;;;;14.75;5.93;;;;;;;6.72;100.00;100242.97;4969004;28;20125;-73
2020/12/14 07:56:18;;;;;;;20.02;6.70;;;;;;;6.68;100.00;100257.41;4968095;28;20067;-73
2020/12/14 07:58:47;;;;;;;9.50;5.75;;;;;;;6.65;100.00;100241.59;4965681;28;20037;-74
2020/12/14 08:01:14;;;;;;;14.93;6.50;;;;;;;6.72;100.00;100241.19;4962814;28;20035;-73
2020/12/14 08:03:40;;;;;;;15.15;6.53;;;;;;;6.73;100.00;100250.00;4969178;28;20113;-72
2020/12/14 08:06:16;;;;;;;14.43;6.25;;;;;;;6.68;100.00;100247.59;4968495;28;20156;-72
2020/12/14 08:08:47;;;;;;;12.32;6.25;;;;;;;6.80;100.00;100251.38;4980249;28;20035;-71
2020/12/14 08:11:13;;;;;;;11.90;5.43;;;;;;;6.75;100.00;100258.78;4965551;28;20039;-71
2020/12/14 08:13:39;;;;;;;16.70;5.80;;;;;;;6.76;100.00;100266.72;4968381;28;20192;-71
2020/12/14 08:16:06;;;;;;;14.27;5.55;;;;;;;6.84;100.00;100284.97;4967732;28;20404;-72
2020/12/14 08:18:34;;;;;;;12.88;4.97;;;;;;;6.87;100.00;100279.44;4968050;28;20039;-71
2020/12/14 08:21:00;;;;;;;13.13;5.40;;;;;;;6.89;100.00;100285.56;4968145;28;20033;-72
2020/12/14 08:23:31;;;;;;;14.32;5.65;;;;;;;6.90;100.00;100285.50;4966832;28;20035;-71
2020/12/14 08:25:57;;;;;;;17.83;5.00;;;;;;;6.94;100.00;100272.81;4966421;28;20047;-72
2020/12/14 08:28:31;;;;;;;11.68;5.70;;;;;;;6.96;100.00;100262.94;4967212;28;20031;-72
2020/12/14 08:30:57;;;;;;;14.00;5.28;;;;;;;6.97;100.00;100261.13;4980796;28;20445;-71
2020/12/14 08:33:22;;;;;;;11.48;5.43;;;;;;;6.98;100.00;100260.16;4969410;28;20037;-71
2020/12/14 08:35:55;;;;;;;15.25;5.70;;;;;;;7.00;100.00;100258.28;4966134;28;20040;-70
2020/12/14 08:38:27;;;;;;;16.83;6.28;;;;;;;7.02;100.00;100267.91;4966918;28;20073;-72
2020/12/14 08:41:04;;;;;;;11.45;5.45;;;;;;;7.09;100.00;100268.44;4967066;28;20070;-71
2020/12/14 08:43:32;;;;;;;11.35;5.63;;;;;;;7.06;100.00;100269.47;4969453;28;20039;-71
2020/12/14 08:46:15;;;;;;;18.95;8.18;;;;;;;7.07;100.00;100273.00;4966749;28;20140;-72
2020/12/14 08:48:43;;;;;;;20.08;8.23;;;;;;;7.19;100.00;100274.97;4967179;28;20031;-72
2020/12/14 08:51:12;;;;;;;20.55;8.73;;;;;;;7.15;100.00;100268.94;4966785;28;20572;-72
2020/12/14 08:53:38;;;;;;;13.00;6.32;;;;;;;7.13;100.00;100275.31;4965433;28;20066;-72
2020/12/14 08:56:12;;;;;;;19.17;9.80;;;;;;;7.20;100.00;100280.22;4963928;28;20687;-72
2020/12/14 08:58:57;;;;;;;27.83;8.80;;;;;;;7.16;100.00;100289.31;4964714;28;20052;-72
2020/12/14 09:01:27;;;;;;;19.05;8.40;;;;;;;7.28;100.00;100285.94;4966005;28;20039;-72
2020/12/14 09:04:01;;;;;;;21.15;9.27;;;;;;;7.29;100.00;100277.00;4965479;28;20086;-73
2020/12/14 09:06:30;;;;;;;16.50;8.35;;;;;;;7.23;100.00;100288.03;4967410;28;20066;-73
2020/12/14 09:09:04;;;;;;;14.35;7.43;;;;;;;7.27;100.00;100284.25;4965425;28;20038;-72
2020/12/14 09:11:31;;;;;;;18.48;7.57;;;;;;;7.26;100.00;100289.69;4965822;28;20062;-72
2020/12/14 09:14:01;;;;;;;19.85;8.10;;;;;;;7.25;100.00;100286.16;4966886;28;20518;-72
2020/12/14 09:16:28;;;;;;;14.85;7.80;;;;;;;7.32;100.00;100295.53;4960922;28;20421;-73
2020/12/14 09:18:54;;;;;;;16.27;8.55;;;;;;;7.32;100.00;100308.88;4963958;28;20027;-73
2020/12/14 09:21:20;;;;;;;21.63;7.63;;;;;;;7.36;100.00;100308.69;4969859;28;20031;-72
2020/12/14 09:24:09;;;;;;;18.23;8.57;;;;;;;7.40;100.00;100310.25;4971371;28;20516;-72
2020/12/14 09:26:34;;;;;;;17.25;9.23;;;;;;;7.38;100.00;100313.00;4969241;28;20122;-72
2020/12/14 09:29:00;;;;;;;21.20;9.07;;;;;;;7.38;100.00;100309.47;4981426;28;20081;-73
2020/12/14 09:31:27;;;;;;;20.98;8.73;;;;;;;7.45;100.00;100308.16;4980091;28;20039;-72
2020/12/14 09:33:53;;;;;;;17.52;9.30;;;;;;;7.42;100.00;100309.19;4971286;28;20081;-73
2020/12/14 09:36:18;;;;;;;20.15;9.57;;;;;;;7.47;100.00;100308.94;4970995;28;20478;-72
2020/12/14 09:38:44;;;;;;;24.98;9.60;;;;;;;7.50;100.00;100306.94;4969065;28;20039;-73
2020/12/14 09:41:10;;;;;;;20.50;9.18;;;;;;;7.47;100.00;100306.28;4971583;28;20041;-72
2020/12/14 09:43:36;;;;;;;24.02;10.00;;;;;;;7.49;100.00;100315.03;4970870;28;20031;-73
2020/12/14 09:46:02;;;;;;;24.42;10.02;;;;;;;7.49;100.00;100321.25;4969923;28;20027;-73
2020/12/14 09:48:27;;;;;;;21.95;9.90;;;;;;;7.56;100.00;100327.97;4967189;28;20665;-72
2020/12/14 09:50:52;;;;;;;20.42;9.93;;;;;;;7.53;100.00;100328.13;4968235;28;20079;-73
2020/12/14 09:53:18;;;;;;;22.67;9.07;;;;;;;7.56;100.00;100333.28;4969354;28;20035;-73
2020/12/14 09:55:44;;;;;;;20.17;9.50;;;;;;;7.57;100.00;100329.69;4968444;28;20030;-73
2020/12/14 09:58:10;;;;;;;19.30;8.43;;;;;;;7.58;100.00;100331.41;4964684;28;20026;-73
2020/12/14 10:00:37;;;;;;;17.15;9.57;;;;;;;7.60;100.00;100328.63;4964939;28;20093;-74
2020/12/14 10:03:03;;;;;;;23.70;10.05;;;;;;;7.56;100.00;100332.44;4961967;28;20117;-73
2020/12/14 10:05:29;;;;;;;14.10;7.65;;;;;;;7.60;100.00;100321.47;4966166;28;20037;-73
2020/12/14 10:07:54;;;;;;;25.20;9.85;;;;;;;7.61;100.00;100333.03;4969452;28;20043;-73
2020/12/14 10:10:19;;;;;;;17.75;8.50;;;;;;;7.64;100.00;100331.03;4968802;28;20038;-73
2020/12/14 10:12:45;;;;;;;18.95;8.43;;;;;;;7.61;100.00;100330.34;4968631;28;20034;-72
2020/12/14 10:15:11;;;;;;;14.55;8.52;;;;;;;7.62;100.00;100324.06;4968140;28;20093;-73
2020/12/14 10:17:37;;;;;;;20.95;9.07;;;;;;;7.55;100.00;100342.25;4968881;28;20043;-73
2020/12/14 10:20:06;;;;;;;20.92;8.82;;;;;;;7.63;100.00;100339.16;4969456;28;20042;-73
2020/12/14 10:22:32;;;;;;;18.42;8.65;;;;;;;7.67;100.00;100335.34;4966548;28;20062;-72
2020/12/14 10:24:58;;;;;;;17.67;9.13;;;;;;;7.63;100.00;100340.00;4969867;28;20046;-73
2020/12/14 10:27:23;;;;;;;18.98;9.43;;;;;;;7.69;100.00;100341.47;4966912;28;20038;-73
2020/12/14 10:29:49;;;;;;;19.08;8.93;;;;;;;7.68;100.00;100342.41;4966868;28;20035;-73
2020/12/14 10:32:15;;;;;;;17.15;9.35;;;;;;;7.75;100.00;100343.78;4969193;28;20030;-72
2020/12/14 10:34:40;;;;;;;22.52;9.35;;;;;;;7.78;100.00;100327.53;4966950;28;20070;-72
2020/12/14 10:37:06;;;;;;;18.50;9.32;;;;;;;7.73;100.00;100334.97;4966777;28;20100;-72
2020/12/14 10:39:31;;;;;;;17.25;9.68;;;;;;;7.79;100.00;100328.41;4963575;28;20085;-72
2020/12/14 10:41:56;;;;;;;21.42;9.98;;;;;;;7.73;100.00;100333.16;4962819;28;20419;-72
2020/12/14 10:44:22;;;;;;;26.92;9.90;;;;;;;7.77;100.00;100339.22;4969137;28;20123;-73
2020/12/14 10:46:47;;;;;;;18.60;10.20;;;;;;;7.69;100.00;100325.44;4968153;28;20545;-72
2020/12/14 10:49:13;;;;;;;16.50;9.57;;;;;;;7.84;100.00;100321.84;4968568;28;20031;-72
2020/12/14 10:51:38;;;;;;;17.13;9.27;;;;;;;7.97;100.00;100317.47;4966514;28;20482;-72
2020/12/14 10:54:04;;;;;;;19.27;9.70;;;;;;;7.97;100.00;100309.47;4968627;28;20457;-72
2020/12/14 10:56:29;;;;;;;16.27;8.93;;;;;;;7.98;100.00;100319.22;4967581;28;20026;-72
2020/12/14 10:58:56;;;;;;;12.98;8.75;;;;;;;7.91;100.00;100308.97;4967903;28;20533;-72
2020/12/14 11:01:22;;;;;;;26.77;11.48;;;;;;;8.02;100.00;100302.03;4966875;28;20035;-71
2020/12/14 11:03:47;;;;;;;17.65;8.75;;;;;;;8.12;100.00;100294.31;4969375;28;20426;-72
2020/12/14 11:06:13;;;;;;;18.58;7.65;;;;;;;8.20;100.00;100276.03;4966466;28;20093;-71
2020/12/14 11:08:38;;;;;;;17.45;8.75;;;;;;;8.15;100.00;100293.28;4966653;28;20473;-72
2020/12/14 11:11:04;;;;;;;23.02;9.30;;;;;;;8.18;100.00;100293.09;4966215;28;20082;-72
2020/12/14 11:13:29;;;;;;;21.40;10.40;;;;;;;8.25;100.00;100294.44;4968599;28;20027;-72
2020/12/14 11:15:55;;;;;;;17.13;9.20;;;;;;;8.37;100.00;100283.00;4966497;28;20121;-72
2020/12/14 11:18:21;;;;;;;25.08;10.48;;;;;;;8.40;100.00;100288.16;4965448;28;20035;-72
2020/12/14 11:20:46;;;;;;;18.52;9.32;;;;;;;8.40;100.00;100283.69;4967114;28;20138;-74
2020/12/14 11:23:12;;;;;;;17.20;8.40;;;;;;;8.47;100.00;100278.81;4967415;28;20049;-73
2020/12/14 11:25:37;;;;;;;20.10;9.55;;;;;;;8.54;100.00;100280.16;4966798;28;20347;-72